sensor_id;sensor_type;location;lat;lon;timestamp;P1;durP1;ratioP1;P2;durP2;ratioP2
9698;SDS011;10089;47.876;8.346;2023-04-03T00:05:50;96.83;;;12.90;;
9698;SDS011;10089;47.876;8.346;2023-04-03T00:08:16;133.63;;;11.60;;
9698;SDS011;10089;47.876;8.346;2023-04-03T00:10:42;134.03;;;12.67;;
9698;SDS011;10089;47.876;8.346;2023-04-03T00:13:08;46.47;;;10.47;;
9698;SDS011;10089;47.876;8.346;2023-04-03T00:15:35;36.60;;;8.10;;
9698;SDS011;10089;47.876;8.346;2023-04-03T00:18:01;32.27;;;8.90;;
9698;SDS011;10089;47.876;8.346;2023-04-03T00:20:26;39.80;;;8.67;;
9698;SDS011;10089;47.876;8.346;2023-04-03T00:22:52;82.27;;;11.77;;
9698;SDS011;10089;47.876;8.346;2023-04-03T00:25:19;131.47;;;16.17;;
9698;SDS011;10089;47.876;8.346;2023-04-03T00:27:44;171.93;;;15.03;;
9698;SDS011;10089;47.876;8.346;2023-04-03T00:30:11;40.80;;;10.60;;
9698;SDS011;10089;47.876;8.346;2023-04-03T00:32:39;9.20;;;6.57;;
9698;SDS011;10089;47.876;8.346;2023-04-03T00:35:05;9.70;;;6.23;;
9698;SDS011;10089;47.876;8.346;2023-04-03T00:37:31;9.13;;;6.30;;
9698;SDS011;10089;47.876;8.346;2023-04-03T00:39:57;8.57;;;6.50;;
9698;SDS011;10089;47.876;8.346;2023-04-03T00:42:23;7.37;;;6.33;;
9698;SDS011;10089;47.876;8.346;2023-04-03T00:47:18;7.33;;;5.47;;
9698;SDS011;10089;47.876;8.346;2023-04-03T00:49:44;7.33;;;5.77;;
9698;SDS011;10089;47.876;8.346;2023-04-03T00:52:12;7.30;;;6.43;;
9698;SDS011;10089;47.876;8.346;2023-04-03T00:54:41;9.60;;;5.87;;
9698;SDS011;10089;47.876;8.346;2023-04-03T00:57:08;6.40;;;5.07;;
9698;SDS011;10089;47.876;8.346;2023-04-03T00:59:37;5.83;;;4.90;;
9698;SDS011;10089;47.876;8.346;2023-04-03T01:02:09;6.20;;;5.17;;
9698;SDS011;10089;47.876;8.346;2023-04-03T01:04:36;5.63;;;4.37;;
9698;SDS011;10089;47.876;8.346;2023-04-03T01:07:07;6.03;;;4.90;;
9698;SDS011;10089;47.876;8.346;2023-04-03T01:09:39;7.50;;;5.47;;
9698;SDS011;10089;47.876;8.346;2023-04-03T01:12:16;6.43;;;5.33;;
9698;SDS011;10089;47.876;8.346;2023-04-03T01:14:44;5.63;;;4.43;;
9698;SDS011;10089;47.876;8.346;2023-04-03T01:25:28;4.50;;;3.70;;
9698;SDS011;10089;47.876;8.346;2023-04-03T01:27:54;5.40;;;4.73;;
9698;SDS011;10089;47.876;8.346;2023-04-03T01:30:21;5.67;;;4.47;;
9698;SDS011;10089;47.876;8.346;2023-04-03T01:32:50;5.37;;;4.20;;
9698;SDS011;10089;47.876;8.346;2023-04-03T01:35:15;5.23;;;4.53;;
9698;SDS011;10089;47.876;8.346;2023-04-03T01:37:41;6.83;;;5.00;;
9698;SDS011;10089;47.876;8.346;2023-04-03T01:40:07;5.83;;;5.17;;
9698;SDS011;10089;47.876;8.346;2023-04-03T01:42:33;6.90;;;5.57;;
9698;SDS011;10089;47.876;8.346;2023-04-03T01:44:59;11.93;;;5.70;;
9698;SDS011;10089;47.876;8.346;2023-04-03T01:47:24;35.73;;;6.80;;
9698;SDS011;10089;47.876;8.346;2023-04-03T01:49:50;10.07;;;7.50;;
9698;SDS011;10089;47.876;8.346;2023-04-03T01:52:16;27.30;;;7.83;;
9698;SDS011;10089;47.876;8.346;2023-04-03T01:54:41;16.13;;;6.97;;
9698;SDS011;10089;47.876;8.346;2023-04-03T01:57:07;81.60;;;10.57;;
9698;SDS011;10089;47.876;8.346;2023-04-03T01:59:33;19.53;;;7.70;;
9698;SDS011;10089;47.876;8.346;2023-04-03T02:01:58;48.03;;;9.73;;
9698;SDS011;10089;47.876;8.346;2023-04-03T02:04:24;71.63;;;11.03;;
9698;SDS011;10089;47.876;8.346;2023-04-03T02:06:50;66.80;;;9.33;;
9698;SDS011;10089;47.876;8.346;2023-04-03T02:09:15;53.83;;;9.23;;
9698;SDS011;10089;47.876;8.346;2023-04-03T02:11:41;89.80;;;12.03;;
9698;SDS011;10089;47.876;8.346;2023-04-03T02:14:06;30.43;;;8.97;;
9698;SDS011;10089;47.876;8.346;2023-04-03T02:16:32;36.17;;;9.40;;
9698;SDS011;10089;47.876;8.346;2023-04-03T02:18:58;70.87;;;9.93;;
9698;SDS011;10089;47.876;8.346;2023-04-03T02:21:24;37.17;;;8.43;;
9698;SDS011;10089;47.876;8.346;2023-04-03T02:23:49;64.90;;;10.03;;
9698;SDS011;10089;47.876;8.346;2023-04-03T02:26:16;40.50;;;8.10;;
9698;SDS011;10089;47.876;8.346;2023-04-03T02:28:42;56.63;;;8.17;;
9698;SDS011;10089;47.876;8.346;2023-04-03T02:31:08;12.93;;;8.57;;
9698;SDS011;10089;47.876;8.346;2023-04-03T02:33:35;35.60;;;9.70;;
9698;SDS011;10089;47.876;8.346;2023-04-03T02:36:02;30.43;;;9.50;;
9698;SDS011;10089;47.876;8.346;2023-04-03T02:38:29;14.47;;;9.53;;
9698;SDS011;10089;47.876;8.346;2023-04-03T02:41:08;28.20;;;9.70;;
9698;SDS011;10089;47.876;8.346;2023-04-03T02:43:35;31.60;;;11.03;;
9698;SDS011;10089;47.876;8.346;2023-04-03T02:46:02;41.97;;;10.50;;
9698;SDS011;10089;47.876;8.346;2023-04-03T02:48:28;25.37;;;9.13;;
9698;SDS011;10089;47.876;8.346;2023-04-03T02:50:54;20.47;;;10.80;;
9698;SDS011;10089;47.876;8.346;2023-04-03T02:53:20;58.40;;;11.07;;
9698;SDS011;10089;47.876;8.346;2023-04-03T02:55:46;52.63;;;13.83;;
9698;SDS011;10089;47.876;8.346;2023-04-03T02:58:12;42.83;;;11.10;;
9698;SDS011;10089;47.876;8.346;2023-04-03T03:00:38;36.67;;;11.47;;
9698;SDS011;10089;47.876;8.346;2023-04-03T03:03:04;45.77;;;11.13;;
9698;SDS011;10089;47.876;8.346;2023-04-03T03:05:30;44.23;;;11.47;;
9698;SDS011;10089;47.876;8.346;2023-04-03T03:07:56;26.77;;;12.90;;
9698;SDS011;10089;47.876;8.346;2023-04-03T03:10:22;49.33;;;12.07;;
9698;SDS011;10089;47.876;8.346;2023-04-03T03:12:49;23.53;;;11.57;;
9698;SDS011;10089;47.876;8.346;2023-04-03T03:15:14;15.37;;;11.53;;
9698;SDS011;10089;47.876;8.346;2023-04-03T03:17:42;33.50;;;11.60;;
9698;SDS011;10089;47.876;8.346;2023-04-03T03:20:08;42.37;;;12.10;;
9698;SDS011;10089;47.876;8.346;2023-04-03T03:22:35;29.00;;;10.97;;
9698;SDS011;10089;47.876;8.346;2023-04-03T03:25:01;32.97;;;11.97;;
9698;SDS011;10089;47.876;8.346;2023-04-03T03:27:27;15.30;;;10.73;;
9698;SDS011;10089;47.876;8.346;2023-04-03T03:29:53;17.70;;;10.50;;
9698;SDS011;10089;47.876;8.346;2023-04-03T03:32:19;15.23;;;10.67;;
9698;SDS011;10089;47.876;8.346;2023-04-03T03:34:44;17.23;;;10.90;;
9698;SDS011;10089;47.876;8.346;2023-04-03T03:37:10;19.03;;;11.63;;
9698;SDS011;10089;47.876;8.346;2023-04-03T03:39:35;28.13;;;12.33;;
9698;SDS011;10089;47.876;8.346;2023-04-03T03:42:01;22.00;;;9.90;;
9698;SDS011;10089;47.876;8.346;2023-04-03T03:44:27;46.90;;;10.50;;
9698;SDS011;10089;47.876;8.346;2023-04-03T03:46:54;50.67;;;13.70;;
9698;SDS011;10089;47.876;8.346;2023-04-03T03:49:20;70.53;;;12.87;;
9698;SDS011;10089;47.876;8.346;2023-04-03T03:51:46;28.03;;;11.53;;
9698;SDS011;10089;47.876;8.346;2023-04-03T03:54:12;44.17;;;12.27;;
9698;SDS011;10089;47.876;8.346;2023-04-03T03:56:37;52.63;;;11.27;;
9698;SDS011;10089;47.876;8.346;2023-04-03T03:59:03;22.70;;;11.33;;
9698;SDS011;10089;47.876;8.346;2023-04-03T04:01:29;22.20;;;11.37;;
9698;SDS011;10089;47.876;8.346;2023-04-03T04:03:55;17.63;;;11.90;;
9698;SDS011;10089;47.876;8.346;2023-04-03T04:06:21;24.03;;;11.13;;
9698;SDS011;10089;47.876;8.346;2023-04-03T04:08:47;20.03;;;11.33;;
9698;SDS011;10089;47.876;8.346;2023-04-03T04:11:12;24.03;;;11.90;;
9698;SDS011;10089;47.876;8.346;2023-04-03T04:13:38;16.00;;;11.53;;
9698;SDS011;10089;47.876;8.346;2023-04-03T04:16:04;18.07;;;12.10;;
9698;SDS011;10089;47.876;8.346;2023-04-03T04:18:30;17.03;;;11.57;;
9698;SDS011;10089;47.876;8.346;2023-04-03T04:20:56;18.53;;;12.47;;
9698;SDS011;10089;47.876;8.346;2023-04-03T04:23:21;26.60;;;12.20;;
9698;SDS011;10089;47.876;8.346;2023-04-03T04:25:47;21.20;;;12.67;;
9698;SDS011;10089;47.876;8.346;2023-04-03T04:28:15;20.63;;;11.73;;
9698;SDS011;10089;47.876;8.346;2023-04-03T04:30:41;17.17;;;12.63;;
9698;SDS011;10089;47.876;8.346;2023-04-03T04:33:07;17.93;;;12.17;;
9698;SDS011;10089;47.876;8.346;2023-04-03T04:35:33;19.20;;;12.60;;
9698;SDS011;10089;47.876;8.346;2023-04-03T04:37:59;25.47;;;12.80;;
9698;SDS011;10089;47.876;8.346;2023-04-03T04:40:25;19.07;;;13.30;;
9698;SDS011;10089;47.876;8.346;2023-04-03T04:42:51;19.97;;;12.63;;
9698;SDS011;10089;47.876;8.346;2023-04-03T04:45:17;16.30;;;12.37;;
9698;SDS011;10089;47.876;8.346;2023-04-03T04:47:43;22.83;;;12.70;;
9698;SDS011;10089;47.876;8.346;2023-04-03T04:50:09;14.83;;;12.23;;
9698;SDS011;10089;47.876;8.346;2023-04-03T04:52:35;18.57;;;13.33;;
9698;SDS011;10089;47.876;8.346;2023-04-03T04:55:01;17.57;;;12.67;;
9698;SDS011;10089;47.876;8.346;2023-04-03T04:57:27;18.83;;;13.50;;
9698;SDS011;10089;47.876;8.346;2023-04-03T04:59:52;18.77;;;12.67;;
9698;SDS011;10089;47.876;8.346;2023-04-03T05:02:18;19.47;;;13.03;;
9698;SDS011;10089;47.876;8.346;2023-04-03T05:04:43;20.30;;;13.83;;
9698;SDS011;10089;47.876;8.346;2023-04-03T05:07:09;21.57;;;14.77;;
9698;SDS011;10089;47.876;8.346;2023-04-03T05:09:35;21.77;;;14.83;;
9698;SDS011;10089;47.876;8.346;2023-04-03T05:12:01;18.60;;;12.80;;
9698;SDS011;10089;47.876;8.346;2023-04-03T05:14:28;18.10;;;13.17;;
9698;SDS011;10089;47.876;8.346;2023-04-03T05:16:54;18.63;;;13.27;;
9698;SDS011;10089;47.876;8.346;2023-04-03T05:19:20;18.87;;;13.20;;
9698;SDS011;10089;47.876;8.346;2023-04-03T05:21:47;18.93;;;13.17;;
9698;SDS011;10089;47.876;8.346;2023-04-03T05:24:13;17.97;;;13.30;;
9698;SDS011;10089;47.876;8.346;2023-04-03T05:26:41;18.30;;;12.47;;
9698;SDS011;10089;47.876;8.346;2023-04-03T05:29:07;19.37;;;13.40;;
9698;SDS011;10089;47.876;8.346;2023-04-03T05:31:33;18.40;;;13.13;;
9698;SDS011;10089;47.876;8.346;2023-04-03T05:33:59;21.17;;;12.70;;
9698;SDS011;10089;47.876;8.346;2023-04-03T05:36:25;17.43;;;12.27;;
9698;SDS011;10089;47.876;8.346;2023-04-03T05:38:51;15.63;;;12.13;;
9698;SDS011;10089;47.876;8.346;2023-04-03T05:41:17;16.20;;;12.10;;
9698;SDS011;10089;47.876;8.346;2023-04-03T05:43:43;16.53;;;12.47;;
9698;SDS011;10089;47.876;8.346;2023-04-03T05:46:12;17.03;;;11.97;;
9698;SDS011;10089;47.876;8.346;2023-04-03T05:48:40;12.00;;;10.00;;
9698;SDS011;10089;47.876;8.346;2023-04-03T05:51:07;15.20;;;11.07;;
9698;SDS011;10089;47.876;8.346;2023-04-03T05:53:38;16.43;;;11.60;;
9698;SDS011;10089;47.876;8.346;2023-04-03T05:56:04;13.77;;;10.17;;
9698;SDS011;10089;47.876;8.346;2023-04-03T05:58:30;15.43;;;10.93;;
9698;SDS011;10089;47.876;8.346;2023-04-03T06:00:55;14.30;;;11.13;;
9698;SDS011;10089;47.876;8.346;2023-04-03T06:03:22;16.93;;;12.07;;
9698;SDS011;10089;47.876;8.346;2023-04-03T06:05:48;15.40;;;10.77;;
9698;SDS011;10089;47.876;8.346;2023-04-03T06:08:13;13.57;;;10.70;;
9698;SDS011;10089;47.876;8.346;2023-04-03T06:10:39;15.83;;;10.60;;
9698;SDS011;10089;47.876;8.346;2023-04-03T06:13:05;14.13;;;10.33;;
9698;SDS011;10089;47.876;8.346;2023-04-03T06:15:31;15.20;;;10.70;;
9698;SDS011;10089;47.876;8.346;2023-04-03T06:17:57;11.20;;;8.80;;
9698;SDS011;10089;47.876;8.346;2023-04-03T06:20:23;13.03;;;9.43;;
9698;SDS011;10089;47.876;8.346;2023-04-03T06:22:49;11.27;;;8.60;;
9698;SDS011;10089;47.876;8.346;2023-04-03T06:25:15;12.40;;;9.03;;
9698;SDS011;10089;47.876;8.346;2023-04-03T06:27:43;12.13;;;8.70;;
9698;SDS011;10089;47.876;8.346;2023-04-03T06:30:10;13.13;;;9.40;;
9698;SDS011;10089;47.876;8.346;2023-04-03T06:32:36;11.40;;;9.53;;
9698;SDS011;10089;47.876;8.346;2023-04-03T06:35:03;11.97;;;9.03;;
9698;SDS011;10089;47.876;8.346;2023-04-03T06:37:29;10.80;;;8.27;;
9698;SDS011;10089;47.876;8.346;2023-04-03T06:39:55;11.03;;;8.50;;
9698;SDS011;10089;47.876;8.346;2023-04-03T06:42:22;13.47;;;8.67;;
9698;SDS011;10089;47.876;8.346;2023-04-03T06:44:48;9.63;;;8.23;;
9698;SDS011;10089;47.876;8.346;2023-04-03T06:47:27;8.97;;;7.63;;
9698;SDS011;10089;47.876;8.346;2023-04-03T06:49:53;10.73;;;7.63;;
9698;SDS011;10089;47.876;8.346;2023-04-03T06:52:18;8.03;;;6.40;;
9698;SDS011;10089;47.876;8.346;2023-04-03T06:54:44;10.60;;;7.40;;
9698;SDS011;10089;47.876;8.346;2023-04-03T06:57:10;9.63;;;7.10;;
9698;SDS011;10089;47.876;8.346;2023-04-03T06:59:35;10.27;;;7.37;;
9698;SDS011;10089;47.876;8.346;2023-04-03T07:02:01;8.17;;;7.33;;
9698;SDS011;10089;47.876;8.346;2023-04-03T07:04:27;8.53;;;7.13;;
9698;SDS011;10089;47.876;8.346;2023-04-03T07:06:53;9.77;;;7.17;;
9698;SDS011;10089;47.876;8.346;2023-04-03T07:09:18;8.33;;;7.17;;
9698;SDS011;10089;47.876;8.346;2023-04-03T07:11:44;9.47;;;7.17;;
9698;SDS011;10089;47.876;8.346;2023-04-03T07:14:10;10.77;;;7.47;;
9698;SDS011;10089;47.876;8.346;2023-04-03T07:16:36;7.73;;;6.70;;
9698;SDS011;10089;47.876;8.346;2023-04-03T07:19:02;9.00;;;6.73;;
9698;SDS011;10089;47.876;8.346;2023-04-03T07:21:28;7.87;;;6.87;;
9698;SDS011;10089;47.876;8.346;2023-04-03T07:23:54;7.17;;;6.47;;
9698;SDS011;10089;47.876;8.346;2023-04-03T07:26:20;8.50;;;7.00;;
9698;SDS011;10089;47.876;8.346;2023-04-03T07:28:47;8.00;;;6.83;;
9698;SDS011;10089;47.876;8.346;2023-04-03T07:31:15;8.07;;;7.17;;
9698;SDS011;10089;47.876;8.346;2023-04-03T07:33:41;8.33;;;6.10;;
9698;SDS011;10089;47.876;8.346;2023-04-03T07:36:08;7.93;;;6.40;;
9698;SDS011;10089;47.876;8.346;2023-04-03T07:38:35;6.83;;;5.47;;
9698;SDS011;10089;47.876;8.346;2023-04-03T07:41:02;7.13;;;5.70;;
9698;SDS011;10089;47.876;8.346;2023-04-03T07:43:29;8.13;;;5.80;;
9698;SDS011;10089;47.876;8.346;2023-04-03T07:45:55;7.73;;;5.83;;
9698;SDS011;10089;47.876;8.346;2023-04-03T07:48:21;6.53;;;5.27;;
9698;SDS011;10089;47.876;8.346;2023-04-03T07:50:48;6.87;;;5.00;;
9698;SDS011;10089;47.876;8.346;2023-04-03T07:53:14;6.07;;;5.47;;
9698;SDS011;10089;47.876;8.346;2023-04-03T07:55:40;9.33;;;5.60;;
9698;SDS011;10089;47.876;8.346;2023-04-03T07:58:16;10.30;;;5.67;;
9698;SDS011;10089;47.876;8.346;2023-04-03T08:00:43;7.53;;;5.70;;
9698;SDS011;10089;47.876;8.346;2023-04-03T08:03:09;5.63;;;5.00;;
9698;SDS011;10089;47.876;8.346;2023-04-03T08:05:39;6.57;;;5.20;;
9698;SDS011;10089;47.876;8.346;2023-04-03T08:08:07;7.37;;;5.50;;
9698;SDS011;10089;47.876;8.346;2023-04-03T08:10:34;6.63;;;5.53;;
9698;SDS011;10089;47.876;8.346;2023-04-03T08:13:00;6.50;;;4.97;;
9698;SDS011;10089;47.876;8.346;2023-04-03T08:15:26;6.43;;;5.17;;
9698;SDS011;10089;47.876;8.346;2023-04-03T08:20:53;4.97;;;4.47;;
9698;SDS011;10089;47.876;8.346;2023-04-03T08:23:19;6.23;;;4.37;;
9698;SDS011;10089;47.876;8.346;2023-04-03T08:25:45;7.17;;;5.53;;
9698;SDS011;10089;47.876;8.346;2023-04-03T08:28:11;4.63;;;4.20;;
9698;SDS011;10089;47.876;8.346;2023-04-03T08:30:41;5.80;;;5.20;;
9698;SDS011;10089;47.876;8.346;2023-04-03T08:33:07;6.13;;;4.70;;
9698;SDS011;10089;47.876;8.346;2023-04-03T08:35:37;5.50;;;4.93;;
9698;SDS011;10089;47.876;8.346;2023-04-03T08:38:04;4.27;;;3.87;;
9698;SDS011;10089;47.876;8.346;2023-04-03T08:40:30;4.63;;;3.67;;
9698;SDS011;10089;47.876;8.346;2023-04-03T08:48:00;9.73;;;6.90;;
9698;SDS011;10089;47.876;8.346;2023-04-03T08:50:49;4.47;;;4.07;;
9698;SDS011;10089;47.876;8.346;2023-04-03T08:53:19;3.47;;;2.77;;
9698;SDS011;10089;47.876;8.346;2023-04-03T08:55:49;7.50;;;4.23;;
9698;SDS011;10089;47.876;8.346;2023-04-03T09:01:05;6.30;;;4.50;;
9698;SDS011;10089;47.876;8.346;2023-04-03T09:03:40;5.70;;;3.30;;
9698;SDS011;10089;47.876;8.346;2023-04-03T09:06:07;5.57;;;3.60;;
9698;SDS011;10089;47.876;8.346;2023-04-03T09:20:17;3.90;;;3.00;;
9698;SDS011;10089;47.876;8.346;2023-04-03T09:23:09;4.60;;;3.97;;
9698;SDS011;10089;47.876;8.346;2023-04-03T09:25:53;3.60;;;3.30;;
9698;SDS011;10089;47.876;8.346;2023-04-03T09:28:34;13.47;;;9.17;;
9698;SDS011;10089;47.876;8.346;2023-04-03T09:31:05;3.90;;;3.50;;
9698;SDS011;10089;47.876;8.346;2023-04-03T09:33:45;3.60;;;3.30;;
9698;SDS011;10089;47.876;8.346;2023-04-03T09:36:12;4.23;;;3.17;;
9698;SDS011;10089;47.876;8.346;2023-04-03T09:38:38;9.97;;;7.67;;
9698;SDS011;10089;47.876;8.346;2023-04-03T09:41:11;4.50;;;3.33;;
9698;SDS011;10089;47.876;8.346;2023-04-03T09:43:40;7.47;;;5.23;;
9698;SDS011;10089;47.876;8.346;2023-04-03T09:48:59;5.37;;;4.57;;
9698;SDS011;10089;47.876;8.346;2023-04-03T09:51:29;6.67;;;5.47;;
9698;SDS011;10089;47.876;8.346;2023-04-03T09:53:56;9.67;;;6.37;;
9698;SDS011;10089;47.876;8.346;2023-04-03T09:56:24;7.80;;;4.60;;
9698;SDS011;10089;47.876;8.346;2023-04-03T10:06:42;4.70;;;3.70;;
9698;SDS011;10089;47.876;8.346;2023-04-03T10:09:16;3.43;;;3.03;;
9698;SDS011;10089;47.876;8.346;2023-04-03T10:14:27;4.10;;;3.50;;
9698;SDS011;10089;47.876;8.346;2023-04-03T10:16:57;4.47;;;4.07;;
9698;SDS011;10089;47.876;8.346;2023-04-03T10:28:01;5.80;;;3.97;;
9698;SDS011;10089;47.876;8.346;2023-04-03T10:33:39;5.13;;;4.63;;
9698;SDS011;10089;47.876;8.346;2023-04-03T10:57:25;7.43;;;5.73;;
9698;SDS011;10089;47.876;8.346;2023-04-03T10:59:51;5.47;;;4.23;;
9698;SDS011;10089;47.876;8.346;2023-04-03T11:05:45;4.57;;;3.90;;
9698;SDS011;10089;47.876;8.346;2023-04-03T11:11:06;4.87;;;3.80;;
9698;SDS011;10089;47.876;8.346;2023-04-03T11:16:17;6.87;;;5.30;;
9698;SDS011;10089;47.876;8.346;2023-04-03T11:18:52;7.20;;;4.60;;
9698;SDS011;10089;47.876;8.346;2023-04-03T11:21:32;7.30;;;6.30;;
9698;SDS011;10089;47.876;8.346;2023-04-03T11:24:13;4.53;;;4.07;;
9698;SDS011;10089;47.876;8.346;2023-04-03T11:26:46;4.87;;;4.03;;
9698;SDS011;10089;47.876;8.346;2023-04-03T11:29:15;6.23;;;3.80;;
9698;SDS011;10089;47.876;8.346;2023-04-03T11:34:44;4.57;;;3.90;;
9698;SDS011;10089;47.876;8.346;2023-04-03T11:40:02;4.23;;;3.83;;
9698;SDS011;10089;47.876;8.346;2023-04-03T11:42:39;3.80;;;3.50;;
9698;SDS011;10089;47.876;8.346;2023-04-03T11:46:07;4.93;;;4.30;;
9698;SDS011;10089;47.876;8.346;2023-04-03T11:50:57;7.30;;;4.13;;
9698;SDS011;10089;47.876;8.346;2023-04-03T11:53:34;3.60;;;3.30;;
9698;SDS011;10089;47.876;8.346;2023-04-03T12:04:27;3.87;;;3.33;;
9698;SDS011;10089;47.876;8.346;2023-04-03T12:06:59;4.30;;;3.90;;
9698;SDS011;10089;47.876;8.346;2023-04-03T12:12:39;3.90;;;3.33;;
9698;SDS011;10089;47.876;8.346;2023-04-03T12:15:16;4.13;;;3.33;;
9698;SDS011;10089;47.876;8.346;2023-04-03T12:17:46;5.20;;;3.33;;
9698;SDS011;10089;47.876;8.346;2023-04-03T12:29:44;4.47;;;3.00;;
9698;SDS011;10089;47.876;8.346;2023-04-03T12:40:53;5.03;;;3.30;;
9698;SDS011;10089;47.876;8.346;2023-04-03T12:46:07;4.23;;;3.40;;
9698;SDS011;10089;47.876;8.346;2023-04-03T12:51:19;4.60;;;3.13;;
9698;SDS011;10089;47.876;8.346;2023-04-03T12:56:46;4.17;;;3.10;;
9698;SDS011;10089;47.876;8.346;2023-04-03T12:59:14;3.53;;;3.23;;
9698;SDS011;10089;47.876;8.346;2023-04-03T13:01:59;6.00;;;3.67;;
9698;SDS011;10089;47.876;8.346;2023-04-03T13:04:30;4.00;;;3.50;;
9698;SDS011;10089;47.876;8.346;2023-04-03T13:06:57;4.40;;;3.43;;
9698;SDS011;10089;47.876;8.346;2023-04-03T13:09:25;4.50;;;3.63;;
9698;SDS011;10089;47.876;8.346;2023-04-03T13:12:00;4.20;;;3.17;;
9698;SDS011;10089;47.876;8.346;2023-04-03T13:17:34;4.33;;;2.80;;
9698;SDS011;10089;47.876;8.346;2023-04-03T13:20:17;5.50;;;3.07;;
9698;SDS011;10089;47.876;8.346;2023-04-03T13:22:48;3.20;;;2.80;;
9698;SDS011;10089;47.876;8.346;2023-04-03T13:25:15;3.73;;;2.60;;
9698;SDS011;10089;47.876;8.346;2023-04-03T13:27:43;6.17;;;2.70;;
9698;SDS011;10089;47.876;8.346;2023-04-03T13:32:58;4.43;;;3.27;;
9698;SDS011;10089;47.876;8.346;2023-04-03T13:35:35;3.40;;;2.93;;
9698;SDS011;10089;47.876;8.346;2023-04-03T13:38:23;3.47;;;3.17;;
9698;SDS011;10089;47.876;8.346;2023-04-03T13:43:50;4.60;;;2.87;;
9698;SDS011;10089;47.876;8.346;2023-04-03T13:48:42;4.50;;;3.27;;
9698;SDS011;10089;47.876;8.346;2023-04-03T13:53:47;9.10;;;5.57;;
9698;SDS011;10089;47.876;8.346;2023-04-03T13:56:52;3.67;;;3.23;;
9698;SDS011;10089;47.876;8.346;2023-04-03T14:04:16;4.20;;;3.23;;
9698;SDS011;10089;47.876;8.346;2023-04-03T14:06:49;7.00;;;3.93;;
9698;SDS011;10089;47.876;8.346;2023-04-03T14:09:16;5.25;;;3.88;;
9698;SDS011;10089;47.876;8.346;2023-04-03T14:11:43;3.90;;;3.27;;
9698;SDS011;10089;47.876;8.346;2023-04-03T14:14:12;5.77;;;3.13;;
9698;SDS011;10089;47.876;8.346;2023-04-03T14:16:43;5.88;;;3.95;;
9698;SDS011;10089;47.876;8.346;2023-04-03T14:19:16;5.38;;;3.67;;
9698;SDS011;10089;47.876;8.346;2023-04-03T14:21:44;4.80;;;3.73;;
9698;SDS011;10089;47.876;8.346;2023-04-03T14:24:11;9.00;;;3.70;;
9698;SDS011;10089;47.876;8.346;2023-04-03T14:26:37;6.25;;;3.83;;
9698;SDS011;10089;47.876;8.346;2023-04-03T14:29:03;5.37;;;3.60;;
9698;SDS011;10089;47.876;8.346;2023-04-03T14:31:28;6.30;;;3.57;;
9698;SDS011;10089;47.876;8.346;2023-04-03T14:33:54;6.13;;;3.70;;
9698;SDS011;10089;47.876;8.346;2023-04-03T14:36:21;6.00;;;4.03;;
9698;SDS011;10089;47.876;8.346;2023-04-03T14:38:50;4.60;;;3.67;;
9698;SDS011;10089;47.876;8.346;2023-04-03T14:41:18;6.00;;;3.20;;
9698;SDS011;10089;47.876;8.346;2023-04-03T14:43:54;4.25;;;3.30;;
9698;SDS011;10089;47.876;8.346;2023-04-03T14:46:22;4.10;;;3.40;;
9698;SDS011;10089;47.876;8.346;2023-04-03T14:48:51;4.10;;;3.47;;
9698;SDS011;10089;47.876;8.346;2023-04-03T14:51:17;8.80;;;5.13;;
9698;SDS011;10089;47.876;8.346;2023-04-03T14:53:43;7.03;;;3.90;;
9698;SDS011;10089;47.876;8.346;2023-04-03T14:56:20;3.80;;;3.23;;
9698;SDS011;10089;47.876;8.346;2023-04-03T14:58:49;4.13;;;3.40;;
9698;SDS011;10089;47.876;8.346;2023-04-03T15:01:17;7.03;;;4.27;;
9698;SDS011;10089;47.876;8.346;2023-04-03T15:03:43;3.95;;;3.28;;
9698;SDS011;10089;47.876;8.346;2023-04-03T15:06:13;4.57;;;3.70;;
9698;SDS011;10089;47.876;8.346;2023-04-03T15:08:40;5.07;;;3.40;;
9698;SDS011;10089;47.876;8.346;2023-04-03T15:11:07;6.73;;;4.90;;
9698;SDS011;10089;47.876;8.346;2023-04-03T15:13:35;9.60;;;4.70;;
9698;SDS011;10089;47.876;8.346;2023-04-03T15:16:02;5.30;;;3.83;;
9698;SDS011;10089;47.876;8.346;2023-04-03T15:18:29;4.47;;;3.47;;
9698;SDS011;10089;47.876;8.346;2023-04-03T15:21:01;3.85;;;3.35;;
9698;SDS011;10089;47.876;8.346;2023-04-03T15:23:27;3.37;;;3.07;;
9698;SDS011;10089;47.876;8.346;2023-04-03T15:25:54;5.47;;;4.40;;
9698;SDS011;10089;47.876;8.346;2023-04-03T15:28:40;3.57;;;3.27;;
9698;SDS011;10089;47.876;8.346;2023-04-03T15:31:07;5.17;;;4.27;;
9698;SDS011;10089;47.876;8.346;2023-04-03T15:33:33;4.20;;;3.73;;
9698;SDS011;10089;47.876;8.346;2023-04-03T15:36:00;10.70;;;6.93;;
9698;SDS011;10089;47.876;8.346;2023-04-03T15:38:26;5.23;;;4.73;;
9698;SDS011;10089;47.876;8.346;2023-04-03T15:40:52;5.73;;;3.90;;
9698;SDS011;10089;47.876;8.346;2023-04-03T15:43:19;5.57;;;3.70;;
9698;SDS011;10089;47.876;8.346;2023-04-03T15:45:45;3.33;;;3.03;;
9698;SDS011;10089;47.876;8.346;2023-04-03T15:48:11;5.63;;;4.10;;
9698;SDS011;10089;47.876;8.346;2023-04-03T15:50:37;4.40;;;3.42;;
9698;SDS011;10089;47.876;8.346;2023-04-03T15:53:06;6.53;;;5.20;;
9698;SDS011;10089;47.876;8.346;2023-04-03T15:55:34;5.00;;;4.03;;
9698;SDS011;10089;47.876;8.346;2023-04-03T15:58:01;4.37;;;3.60;;
9698;SDS011;10089;47.876;8.346;2023-04-03T16:00:34;6.03;;;3.57;;
9698;SDS011;10089;47.876;8.346;2023-04-03T16:03:10;9.27;;;5.97;;
9698;SDS011;10089;47.876;8.346;2023-04-03T16:05:39;5.57;;;3.47;;
9698;SDS011;10089;47.876;8.346;2023-04-03T16:08:05;4.00;;;3.40;;
9698;SDS011;10089;47.876;8.346;2023-04-03T16:10:32;5.60;;;3.67;;
9698;SDS011;10089;47.876;8.346;2023-04-03T16:12:59;5.73;;;3.80;;
9698;SDS011;10089;47.876;8.346;2023-04-03T16:15:25;6.47;;;4.43;;
9698;SDS011;10089;47.876;8.346;2023-04-03T16:17:52;4.13;;;3.10;;
9698;SDS011;10089;47.876;8.346;2023-04-03T16:20:19;7.57;;;4.03;;
9698;SDS011;10089;47.876;8.346;2023-04-03T16:22:46;7.20;;;3.23;;
9698;SDS011;10089;47.876;8.346;2023-04-03T16:25:12;8.30;;;4.10;;
9698;SDS011;10089;47.876;8.346;2023-04-03T16:27:38;8.03;;;4.27;;
9698;SDS011;10089;47.876;8.346;2023-04-03T16:30:13;6.77;;;3.23;;
9698;SDS011;10089;47.876;8.346;2023-04-03T16:32:39;8.87;;;5.53;;
9698;SDS011;10089;47.876;8.346;2023-04-03T16:35:05;4.03;;;3.20;;
9698;SDS011;10089;47.876;8.346;2023-04-03T16:37:32;3.10;;;2.67;;
9698;SDS011;10089;47.876;8.346;2023-04-03T16:39:58;3.73;;;3.13;;
9698;SDS011;10089;47.876;8.346;2023-04-03T16:42:24;4.80;;;2.90;;
9698;SDS011;10089;47.876;8.346;2023-04-03T16:44:50;4.50;;;2.90;;
9698;SDS011;10089;47.876;8.346;2023-04-03T16:47:16;3.63;;;3.00;;
9698;SDS011;10089;47.876;8.346;2023-04-03T16:49:44;3.90;;;2.90;;
9698;SDS011;10089;47.876;8.346;2023-04-03T16:52:10;5.10;;;3.03;;
9698;SDS011;10089;47.876;8.346;2023-04-03T16:54:36;3.67;;;2.70;;
9698;SDS011;10089;47.876;8.346;2023-04-03T16:57:01;3.13;;;2.70;;
9698;SDS011;10089;47.876;8.346;2023-04-03T16:59:27;2.97;;;2.67;;
9698;SDS011;10089;47.876;8.346;2023-04-03T17:02:00;3.63;;;2.80;;
9698;SDS011;10089;47.876;8.346;2023-04-03T17:04:26;4.60;;;2.80;;
9698;SDS011;10089;47.876;8.346;2023-04-03T17:06:51;5.77;;;2.80;;
9698;SDS011;10089;47.876;8.346;2023-04-03T17:09:17;3.30;;;2.53;;
9698;SDS011;10089;47.876;8.346;2023-04-03T17:11:43;3.30;;;2.83;;
9698;SDS011;10089;47.876;8.346;2023-04-03T17:14:08;4.00;;;2.50;;
9698;SDS011;10089;47.876;8.346;2023-04-03T17:16:35;5.53;;;2.53;;
9698;SDS011;10089;47.876;8.346;2023-04-03T17:19:02;5.03;;;3.20;;
9698;SDS011;10089;47.876;8.346;2023-04-03T17:21:35;4.77;;;3.10;;
9698;SDS011;10089;47.876;8.346;2023-04-03T17:24:02;6.33;;;3.00;;
9698;SDS011;10089;47.876;8.346;2023-04-03T17:26:33;2.63;;;2.33;;
9698;SDS011;10089;47.876;8.346;2023-04-03T17:29:01;3.47;;;2.83;;
9698;SDS011;10089;47.876;8.346;2023-04-03T17:31:27;3.67;;;2.53;;
9698;SDS011;10089;47.876;8.346;2023-04-03T17:33:53;3.13;;;2.40;;
9698;SDS011;10089;47.876;8.346;2023-04-03T17:36:19;3.13;;;2.83;;